Time;durP1;ratioP1;P1;durP2;ratioP2;P2;SDS_P1;SDS_P2;PMS_P1;PMS_P2;Temp;Humidity;BMP_temperature;BMP_pressure;BME280_temperature;BME280_humidity;BME280_pressure;Samples;Min_cycle;Max_cycle;Signal;HPM_P1;HPM_P2
2023/06/05 00:00:56;;;;;;;5.22;2.60;;;;;;;16.31;61.66;101904.38;4932022;29;20110;-47
2023/06/05 00:03:26;;;;;;;7.82;2.28;;;;;;;16.31;61.63;101903.53;4929360;29;20078;-47
2023/06/05 00:05:54;;;;;;;5.45;2.65;;;;;;;16.31;61.82;101903.53;4931983;29;20048;-44
2023/06/05 00:08:21;;;;;;;5.22;2.47;;;;;;;16.30;61.85;101904.72;4931881;29;20099;-44
2023/06/05 00:10:49;;;;;;;5.72;2.70;;;;;;;16.32;62.06;101902.38;4929218;29;20067;-49
2023/06/05 00:13:16;;;;;;;3.42;2.10;;;;;;;16.27;62.39;101899.84;4931887;29;20090;-44
2023/06/05 00:15:43;;;;;;;7.53;3.42;;;;;;;16.25;62.53;101905.81;4931807;29;20052;-49
2023/06/05 00:18:10;;;;;;;5.00;2.20;;;;;;;16.19;62.75;101912.81;4931955;29;20046;-44
2023/06/05 00:20:37;;;;;;;2.67;1.98;;;;;;;16.18;62.96;101902.78;4932030;29;20062;-44
2023/06/05 00:23:03;;;;;;;5.60;2.17;;;;;;;16.15;62.99;101892.31;4931662;29;20620;-44
2023/06/05 00:25:30;;;;;;;4.85;2.30;;;;;;;16.15;63.34;101894.31;4928942;29;20063;-44
2023/06/05 00:27:57;;;;;;;5.90;2.60;;;;;;;16.08;63.44;101894.09;4930326;29;20494;-44
2023/06/05 00:30:24;;;;;;;5.55;2.58;;;;;;;16.03;63.58;101899.94;4931588;29;20055;-45
2023/06/05 00:32:51;;;;;;;5.30;2.83;;;;;;;15.98;63.88;101894.59;4931425;29;20044;-45
2023/06/05 00:35:18;;;;;;;5.35;2.60;;;;;;;15.93;64.23;101897.66;4931518;29;20047;-44
2023/06/05 00:37:46;;;;;;;9.23;4.05;;;;;;;15.89;64.17;101891.94;4931213;29;20039;-44
2023/06/05 00:40:14;;;;;;;4.47;2.85;;;;;;;15.86;64.35;101895.44;4928606;29;20052;-44
2023/06/05 00:42:40;;;;;;;7.28;3.55;;;;;;;15.81;64.65;101893.72;4931149;29;20051;-44
2023/06/05 00:45:07;;;;;;;8.05;4.35;;;;;;;15.76;64.80;101891.16;4929372;29;20112;-47
2023/06/05 00:47:35;;;;;;;4.63;3.30;;;;;;;15.74;64.86;101884.31;4931442;29;20122;-44
2023/06/05 00:50:02;;;;;;;6.60;3.80;;;;;;;15.70;64.85;101886.97;4931446;29;20062;-45
2023/06/05 00:52:29;;;;;;;11.13;4.03;;;;;;;15.69;64.88;101887.34;4930156;29;20043;-45
2023/06/05 00:54:56;;;;;;;6.82;3.28;;;;;;;15.66;65.15;101891.66;4927167;29;20054;-46
2023/06/05 00:57:24;;;;;;;7.22;3.42;;;;;;;15.61;65.39;101893.88;4931692;29;20052;-46
2023/06/05 00:59:53;;;;;;;6.78;3.55;;;;;;;15.57;65.30;101885.38;4931562;29;20439;-44
2023/06/05 01:02:20;;;;;;;6.88;3.78;;;;;;;15.58;65.43;101881.44;4929915;29;20063;-45
2023/06/05 01:04:48;;;;;;;7.40;3.70;;;;;;;15.55;65.67;101881.31;4931115;29;20063;-44
2023/06/05 01:07:16;;;;;;;7.53;3.92;;;;;;;15.54;65.77;101879.72;4931413;29;20048;-44
2023/06/05 01:09:44;;;;;;;7.75;3.20;;;;;;;15.52;65.66;101882.00;4927894;29;20130;-44
2023/06/05 01:12:26;;;;;;;8.88;4.82;;;;;;;15.51;65.95;101880.41;4913472;29;20394;-44
2023/06/05 01:14:58;;;;;;;8.32;3.80;;;;;;;15.46;65.79;101877.84;4928835;29;20063;-44
2023/06/05 01:17:32;;;;;;;6.38;3.30;;;;;;;15.42;66.11;101882.47;4930755;29;20052;-43
2023/06/05 01:20:09;;;;;;;6.68;3.50;;;;;;;15.37;66.12;101879.91;4928171;29;20050;-49
2023/06/05 01:22:39;;;;;;;5.57;2.75;;;;;;;15.36;66.18;101878.28;4924979;29;20055;-45
2023/06/05 01:25:07;;;;;;;6.85;3.15;;;;;;;15.36;66.30;101875.47;4930535;29;20661;-46
2023/06/05 01:28:06;;;;;;;12.15;3.58;;;;;;;15.34;66.56;101881.44;4920596;29;20497;-53
2023/06/05 01:31:01;;;;;;;3.85;2.30;;;;;;;15.32;66.47;101880.16;4919300;29;20059;-45
2023/06/05 01:33:43;;;;;;;4.13;2.50;;;;;;;15.35;66.37;101883.06;4920310;29;20043;-46
2023/06/05 01:36:11;;;;;;;5.20;2.75;;;;;;;15.35;66.51;101877.50;4923798;29;20046;-45
2023/06/05 01:38:40;;;;;;;6.30;2.53;;;;;;;15.30;66.71;101874.94;4909929;29;20052;-45
2023/06/05 01:41:11;;;;;;;9.65;3.28;;;;;;;15.30;66.83;101874.94;4923831;29;20142;-45
2023/06/05 01:43:38;;;;;;;9.43;3.22;;;;;;;15.28;67.02;101871.66;4930613;29;20155;-46
2023/06/05 01:46:09;;;;;;;4.70;2.60;;;;;;;15.23;67.12;101872.72;4928058;29;20598;-44
2023/06/05 01:48:38;;;;;;;3.97;2.55;;;;;;;15.21;67.33;101872.25;4932199;29;20114;-45
2023/06/05 01:51:05;;;;;;;7.00;2.85;;;;;;;15.19;67.25;101874.59;4931574;29;20441;-49
2023/06/05 01:53:32;;;;;;;5.97;2.45;;;;;;;15.17;67.51;101871.31;4928598;29;20056;-45
2023/06/05 01:55:59;;;;;;;3.70;2.83;;;;;;;15.17;67.39;101870.50;4931905;29;20102;-50
2023/06/05 01:58:26;;;;;;;10.20;3.00;;;;;;;15.16;67.72;101872.50;4930097;29;20375;-44
2023/06/05 02:00:56;;;;;;;4.22;3.03;;;;;;;15.14;67.54;101866.44;4931039;29;20047;-48
2023/06/05 02:03:24;;;;;;;4.95;2.75;;;;;;;15.13;67.54;101870.41;4926002;29;20516;-45
2023/06/05 02:05:51;;;;;;;6.30;2.88;;;;;;;15.12;67.78;101865.16;4928660;29;20051;-45
2023/06/05 02:08:22;;;;;;;4.13;2.83;;;;;;;15.11;67.44;101871.91;4927584;29;20039;-55
2023/06/05 02:10:50;;;;;;;6.15;2.97;;;;;;;15.06;67.71;101864.56;4914758;29;20049;-48
2023/06/05 02:13:18;;;;;;;7.65;3.05;;;;;;;15.03;67.80;101862.50;4928090;29;20040;-44
2023/06/05 02:15:46;;;;;;;5.95;2.92;;;;;;;15.00;67.83;101865.97;4929386;29;20051;-44
2023/06/05 02:18:15;;;;;;;4.70;2.70;;;;;;;15.00;67.91;101862.38;4914413;29;20267;-45
2023/06/05 02:20:42;;;;;;;4.80;2.65;;;;;;;14.96;67.98;101861.44;4912067;29;20107;-46
2023/06/05 02:23:09;;;;;;;7.70;2.60;;;;;;;14.93;68.02;101862.94;4924158;29;20513;-49
2023/06/05 02:25:35;;;;;;;5.05;2.70;;;;;;;14.90;67.94;101866.44;4925714;29;20067;-45
2023/06/05 02:28:02;;;;;;;5.43;2.20;;;;;;;14.87;68.34;101866.31;4930440;29;20052;-45
2023/06/05 02:30:29;;;;;;;5.82;2.58;;;;;;;14.86;68.25;101856.31;4932597;29;20554;-47
2023/06/05 02:32:56;;;;;;;6.75;2.90;;;;;;;14.86;68.19;101862.72;4927404;29;20413;-45
2023/06/05 02:35:24;;;;;;;8.45;2.55;;;;;;;14.84;68.01;101864.22;4929298;29;20083;-47
2023/06/05 02:37:51;;;;;;;6.35;2.40;;;;;;;14.79;68.29;101854.13;4930051;29;20056;-46
2023/06/05 02:40:18;;;;;;;4.68;3.25;;;;;;;14.74;68.21;101857.13;4932237;29;20150;-44
2023/06/05 02:42:45;;;;;;;5.53;2.95;;;;;;;14.71;68.38;101862.56;4926934;29;20044;-50
2023/06/05 02:45:11;;;;;;;3.08;2.28;;;;;;;14.64;68.57;101858.38;4918311;29;20051;-47
2023/06/05 02:47:38;;;;;;;7.45;2.72;;;;;;;14.64;68.57;101863.13;4926217;29;20549;-46
2023/06/05 02:50:08;;;;;;;5.60;3.05;;;;;;;14.62;68.48;101857.91;4929091;29;20052;-46
2023/06/05 02:52:35;;;;;;;8.07;3.00;;;;;;;14.59;68.74;101861.38;4929627;29;20395;-48
2023/06/05 02:55:04;;;;;;;5.95;3.38;;;;;;;14.58;68.76;101854.19;4931132;29;20130;-44
2023/06/05 02:57:33;;;;;;;6.38;3.10;;;;;;;14.57;68.49;101866.50;4930136;29;20165;-45
2023/06/05 03:00:01;;;;;;;5.05;2.60;;;;;;;14.58;68.54;101864.53;4927210;29;20692;-45
2023/06/05 03:02:28;;;;;;;5.15;3.05;;;;;;;14.57;68.36;101868.47;4932795;23;1202476;-45
2023/06/05 03:04:55;;;;;;;5.65;2.95;;;;;;;14.53;68.42;101867.53;4949287;28;20043;-44
2023/06/05 03:07:22;;;;;;;7.93;3.20;;;;;;;14.50;68.78;101876.59;4949438;28;20051;-45
2023/06/05 03:09:49;;;;;;;6.22;3.95;;;;;;;14.50;68.60;101868.22;4948451;28;20055;-45
2023/06/05 03:12:17;;;;;;;7.30;3.58;;;;;;;14.46;68.82;101867.28;4950333;28;20055;-52
2023/06/05 03:14:43;;;;;;;9.77;3.05;;;;;;;14.42;68.69;101867.16;4949534;29;20401;-44
2023/06/05 03:17:10;;;;;;;4.40;3.17;;;;;;;14.41;68.86;101864.69;4947440;29;20043;-44
2023/06/05 03:19:37;;;;;;;5.55;3.13;;;;;;;14.35;69.01;101855.75;4950233;29;20480;-45
2023/06/05 03:22:05;;;;;;;5.30;3.00;;;;;;;14.32;69.11;101856.44;4949499;29;20035;-45
2023/06/05 03:24:31;;;;;;;3.83;2.92;;;;;;;14.30;69.05;101857.91;4949928;28;20106;-52
2023/06/05 03:26:58;;;;;;;7.45;3.03;;;;;;;14.30;69.15;101857.91;4951300;29;20141;-45
2023/06/05 03:29:26;;;;;;;5.80;3.67;;;;;;;14.28;69.22;101854.66;4947778;29;20050;-45
2023/06/05 03:31:52;;;;;;;5.53;3.28;;;;;;;14.25;69.10;101849.75;4930422;29;20173;-46
2023/06/05 03:34:19;;;;;;;7.05;2.95;;;;;;;14.23;69.21;101846.50;4947807;28;20047;-45
2023/06/05 03:36:48;;;;;;;5.25;2.80;;;;;;;14.18;69.29;101839.19;4949362;29;20449;-46
2023/06/05 03:39:15;;;;;;;10.32;3.33;;;;;;;14.17;69.24;101842.31;4944650;28;20137;-45
2023/06/05 03:41:41;;;;;;;4.05;2.72;;;;;;;14.14;69.51;101831.88;4946118;29;20051;-45
2023/06/05 03:44:08;;;;;;;6.78;2.97;;;;;;;14.13;69.54;101835.81;4960657;28;20047;-45
2023/06/05 03:46:35;;;;;;;3.35;2.63;;;;;;;14.11;69.33;101836.13;4953057;28;20045;-46
2023/06/05 03:49:08;;;;;;;2.88;2.13;;;;;;;14.12;69.30;101825.81;4952044;28;20045;-46
2023/06/05 03:51:39;;;;;;;7.40;3.00;;;;;;;14.10;69.53;101830.91;4950589;29;20130;-45
2023/06/05 03:54:08;;;;;;;7.68;3.10;;;;;;;14.13;69.40;101830.25;4934114;29;20047;-46
2023/06/05 03:56:38;;;;;;;5.80;2.55;;;;;;;14.14;69.03;101838.25;4951214;28;20134;-46
2023/06/05 03:59:18;;;;;;;4.13;2.30;;;;;;;14.09;69.13;101834.84;4955407;28;20496;-45
2023/06/05 04:01:46;;;;;;;5.03;3.10;;;;;;;14.01;68.91;101829.03;4952978;28;20142;-45
2023/06/05 04:04:13;;;;;;;7.97;3.95;;;;;;;13.98;69.24;101828.88;4951255;28;20125;-46
2023/06/05 04:06:40;;;;;;;4.72;2.90;;;;;;;13.95;69.47;101829.59;4951293;29;20548;-45
2023/06/05 04:09:11;;;;;;;8.15;3.15;;;;;;;13.90;69.58;101833.38;4950192;29;20062;-46
2023/06/05 04:11:43;;;;;;;6.30;3.00;;;;;;;13.89;69.70;101836.53;4949679;28;20150;-52
2023/06/05 04:14:10;;;;;;;4.82;2.00;;;;;;;13.88;69.77;101829.31;4951026;28;20493;-45
2023/06/05 04:16:38;;;;;;;3.05;2.28;;;;;;;13.88;69.57;101827.34;4951470;29;20075;-45
2023/06/05 04:19:06;;;;;;;4.40;2.53;;;;;;;13.90;69.70;101827.81;4950845;29;20139;-48
2023/06/05 04:21:36;;;;;;;3.67;2.17;;;;;;;13.90;69.74;101838.94;4951117;28;20134;-47
2023/06/05 04:24:06;;;;;;;3.72;2.80;;;;;;;13.91;69.81;101839.78;4951041;28;20074;-50
2023/06/05 04:26:34;;;;;;;2.47;1.90;;;;;;;13.91;69.66;101832.25;4950060;29;20057;-46
2023/06/05 04:29:02;;;;;;;4.93;2.60;;;;;;;13.93;69.74;101831.88;4950889;28;20461;-47
2023/06/05 04:31:30;;;;;;;6.13;2.50;;;;;;;13.93;69.87;101832.72;4950255;29;20057;-46
2023/06/05 04:33:58;;;;;;;7.95;2.45;;;;;;;13.94;69.84;101842.69;4933839;28;20062;-45
2023/06/05 04:36:28;;;;;;;5.22;2.53;;;;;;;13.96;69.98;101842.34;4950850;29;20051;-48
2023/06/05 04:38:55;;;;;;;3.67;2.00;;;;;;;13.98;70.05;101851.16;4950671;29;20085;-48
2023/06/05 04:41:22;;;;;;;3.22;2.47;;;;;;;14.03;70.01;101848.19;4950804;29;20043;-45
2023/06/05 04:43:50;;;;;;;5.03;2.78;;;;;;;14.03;70.13;101848.97;4950560;28;20043;-46
2023/06/05 04:46:17;;;;;;;5.03;2.30;;;;;;;14.05;70.23;101840.31;4949999;28;20059;-46
2023/06/05 04:48:45;;;;;;;4.57;2.10;;;;;;;14.08;70.21;101855.50;4933327;29;20047;-46
2023/06/05 04:51:12;;;;;;;5.63;2.28;;;;;;;14.10;70.36;101850.41;4933177;29;20433;-50
2023/06/05 04:53:41;;;;;;;4.65;3.20;;;;;;;14.11;70.61;101846.47;4950841;29;20039;-45
2023/06/05 04:56:09;;;;;;;6.43;2.55;;;;;;;14.15;70.61;101844.63;4950733;28;20460;-45
2023/06/05 04:58:35;;;;;;;5.57;2.58;;;;;;;14.15;70.74;101839.06;4949474;28;20452;-45
2023/06/05 05:01:04;;;;;;;5.88;2.63;;;;;;;14.18;70.66;101841.16;4948696;29;20052;-48
2023/06/05 05:03:32;;;;;;;5.35;2.58;;;;;;;14.19;70.78;101848.38;4950413;29;20446;-46
2023/06/05 05:06:00;;;;;;;3.47;2.03;;;;;;;14.22;70.91;101851.25;4950677;29;20053;-45
2023/06/05 05:08:27;;;;;;;4.38;2.58;;;;;;;14.21;70.99;101849.66;4950198;28;20050;-46
2023/06/05 05:10:54;;;;;;;3.95;2.08;;;;;;;14.22;71.33;101850.44;4950759;28;20469;-53
2023/06/05 05:13:21;;;;;;;7.25;2.67;;;;;;;14.23;71.41;101850.13;4952102;28;20051;-45
2023/06/05 05:15:48;;;;;;;2.53;2.30;;;;;;;14.26;71.46;101846.66;4953723;28;20415;-49
2023/06/05 05:18:16;;;;;;;5.07;2.58;;;;;;;14.30;71.42;101843.97;4953974;29;20082;-45
2023/06/05 05:20:43;;;;;;;6.93;2.17;;;;;;;14.34;71.42;101848.56;4954590;29;20043;-45
2023/06/05 05:23:09;;;;;;;5.20;2.58;;;;;;;14.39;71.59;101850.31;4954096;28;20118;-46
2023/06/05 05:25:37;;;;;;;6.10;2.63;;;;;;;14.42;71.53;101846.84;4954202;28;20090;-46
2023/06/05 05:28:04;;;;;;;5.28;3.05;;;;;;;14.44;71.70;101852.88;4953910;29;20815;-48
2023/06/05 05:30:32;;;;;;;5.07;3.15;;;;;;;14.47;71.78;101843.84;4954000;29;20066;-45
2023/06/05 05:32:59;;;;;;;5.82;2.88;;;;;;;14.51;72.19;101845.56;4952543;28;20047;-45
2023/06/05 05:35:26;;;;;;;7.40;3.00;;;;;;;14.57;72.27;101848.97;4953747;28;20489;-49
2023/06/05 05:37:53;;;;;;;8.25;3.67;;;;;;;14.61;72.42;101844.34;4941606;29;20488;-46
2023/06/05 05:40:19;;;;;;;7.68;3.15;;;;;;;14.66;72.53;101844.09;4953817;29;20051;-45
2023/06/05 05:42:46;;;;;;;5.05;2.65;;;;;;;14.72;72.41;101847.50;4951410;29;20043;-47
2023/06/05 05:45:13;;;;;;;7.63;3.35;;;;;;;14.75;72.69;101847.59;4955817;28;20054;-46
2023/06/05 05:47:40;;;;;;;11.02;3.35;;;;;;;14.79;72.99;101848.53;4953696;29;20055;-46
2023/06/05 05:50:07;;;;;;;5.35;3.17;;;;;;;14.86;73.23;101845.97;4952572;28;20055;-46
2023/06/05 05:52:34;;;;;;;6.13;3.30;;;;;;;14.90;72.99;101854.47;4953651;29;20054;-46
2023/06/05 05:55:03;;;;;;;6.53;3.05;;;;;;;14.95;73.38;101854.25;4952539;28;20047;-45
2023/06/05 05:57:30;;;;;;;7.65;3.70;;;;;;;15.00;73.45;101849.25;4953765;29;20081;-46
2023/06/05 05:59:57;;;;;;;11.15;4.32;;;;;;;15.06;73.57;101850.63;4953169;29;20708;-48
2023/06/05 06:02:25;;;;;;;6.13;3.90;;;;;;;15.11;73.44;101856.00;4951898;29;20058;-46
2023/06/05 06:04:51;;;;;;;6.53;3.58;;;;;;;15.16;73.72;101858.53;4953489;29;20051;-47
2023/06/05 06:07:18;;;;;;;8.60;4.28;;;;;;;15.22;73.98;101857.13;4952475;29;20053;-48
2023/06/05 06:09:46;;;;;;;9.60;4.95;;;;;;;15.25;74.05;101852.81;4953002;28;20098;-45
2023/06/05 06:12:13;;;;;;;6.45;3.88;;;;;;;15.30;74.02;101844.25;4953280;29;20130;-45
2023/06/05 06:14:40;;;;;;;9.10;5.57;;;;;;;15.35;74.25;101849.59;4953204;29;20568;-48
2023/06/05 06:17:10;;;;;;;8.98;4.20;;;;;;;15.40;74.41;101857.72;4953155;29;20394;-45
2023/06/05 06:19:37;;;;;;;7.47;4.50;;;;;;;15.44;74.47;101853.03;4952945;29;20121;-45
2023/06/05 06:22:11;;;;;;;10.65;4.30;;;;;;;15.49;74.71;101860.41;4953109;29;20066;-46
2023/06/05 06:24:40;;;;;;;7.85;3.70;;;;;;;15.54;74.71;101857.38;4951963;28;20130;-46
2023/06/05 06:27:12;;;;;;;4.88;3.97;;;;;;;15.58;74.82;101859.09;4953041;29;20054;-45
2023/06/05 06:29:53;;;;;;;9.70;3.95;;;;;;;15.64;74.93;101865.25;4953054;28;20074;-47
2023/06/05 06:32:21;;;;;;;7.75;3.72;;;;;;;15.69;74.89;101859.44;4950768;28;20051;-46
2023/06/05 06:34:48;;;;;;;9.15;4.63;;;;;;;15.73;75.12;101863.13;4952724;29;20119;-46
2023/06/05 06:37:16;;;;;;;8.50;4.45;;;;;;;15.79;75.03;101858.94;4952584;29;20088;-49
2023/06/05 06:39:43;;;;;;;15.05;5.47;;;;;;;15.84;75.11;101875.44;4953250;29;20070;-46
2023/06/05 06:42:11;;;;;;;10.35;4.28;;;;;;;15.88;75.20;101868.00;4951833;29;20054;-47
2023/06/05 06:44:38;;;;;;;9.23;4.82;;;;;;;15.93;75.09;101862.16;4951160;29;20409;-52
2023/06/05 06:47:05;;;;;;;8.68;5.13;;;;;;;15.99;75.26;101862.72;4952580;28;20051;-46
2023/06/05 06:49:34;;;;;;;6.35;3.95;;;;;;;16.04;75.27;101874.47;4952767;29;20501;-45
2023/06/05 06:52:01;;;;;;;12.40;4.32;;;;;;;16.10;75.14;101875.81;4952329;29;20051;-46
2023/06/05 06:54:28;;;;;;;6.18;3.55;;;;;;;16.16;75.10;101870.78;4952354;29;20062;-49
2023/06/05 06:56:56;;;;;;;7.20;4.10;;;;;;;16.24;75.17;101856.66;4952545;29;20374;-46
2023/06/05 06:59:23;;;;;;;8.23;4.22;;;;;;;16.32;75.07;101875.25;4950514;28;20043;-45
2023/06/05 07:02:29;;;;;;;7.30;3.67;;;;;;;16.44;75.00;101871.59;4952529;28;20051;-46
2023/06/05 07:04:55;;;;;;;12.00;4.80;;;;;;;16.53;75.10;101877.03;4874019;29;20076;-47
2023/06/05 07:07:23;;;;;;;9.57;4.55;;;;;;;16.62;74.90;101884.09;4874573;29;20622;-45
2023/06/05 07:09:51;;;;;;;7.72;4.07;;;;;;;16.70;74.95;101876.72;4905080;28;20063;-46
2023/06/05 07:12:20;;;;;;;7.35;3.53;;;;;;;16.80;75.00;101878.97;4952343;28;20070;-50
2023/06/05 07:14:47;;;;;;;7.80;3.97;;;;;;;16.87;75.44;101882.75;4949064;28;20051;-46
2023/06/05 07:17:13;;;;;;;5.72;3.70;;;;;;;16.94;75.66;101876.56;4942244;29;20051;-47
2023/06/05 07:19:40;;;;;;;8.38;3.90;;;;;;;17.04;76.24;101881.59;4952143;29;20081;-46
2023/06/05 07:22:08;;;;;;;11.18;4.57;;;;;;;17.16;76.60;101878.69;4951739;29;20062;-46
2023/06/05 07:24:35;;;;;;;7.30;3.78;;;;;;;17.27;77.06;101885.38;4951952;29;20498;-50
2023/06/05 07:27:03;;;;;;;6.15;3.85;;;;;;;17.43;77.41;101880.56;4952251;28;20388;-46
2023/06/05 07:29:30;;;;;;;7.35;4.07;;;;;;;17.60;77.75;101883.00;4950521;28;20391;-46
2023/06/05 07:31:58;;;;;;;8.15;4.15;;;;;;;17.78;78.23;101882.56;4951176;28;20043;-45
2023/06/05 07:34:26;;;;;;;7.93;4.10;;;;;;;17.96;78.47;101893.00;4950575;28;20102;-46
2023/06/05 07:36:55;;;;;;;5.38;3.30;;;;;;;18.17;78.92;101884.22;4943003;28;20071;-48
2023/06/05 07:39:22;;;;;;;7.40;3.60;;;;;;;18.40;79.00;101876.66;4945264;29;20060;-43
2023/06/05 07:41:49;;;;;;;5.28;3.50;;;;;;;18.72;78.93;101882.91;4945965;28;20047;-44
2023/06/05 07:44:18;;;;;;;4.80;3.38;;;;;;;19.11;78.27;101883.63;4945130;28;20054;-48
2023/06/05 07:46:46;;;;;;;8.65;3.83;;;;;;;19.56;76.95;101883.56;4942824;29;20556;-44
2023/06/05 07:49:15;;;;;;;9.15;3.30;;;;;;;20.05;75.31;101889.84;4949145;28;20082;-46
2023/06/05 07:51:43;;;;;;;8.07;3.78;;;;;;;20.65;72.52;101884.16;4951448;29;20146;-47
2023/06/05 07:54:12;;;;;;;6.72;3.78;;;;;;;21.19;70.09;101892.75;4950040;28;20402;-45
2023/06/05 07:56:39;;;;;;;8.00;4.47;;;;;;;21.77;66.90;101898.38;4947759;29;20142;-45
2023/06/05 07:59:07;;;;;;;8.02;4.10;;;;;;;22.31;64.68;101897.47;4948913;28;20044;-45
2023/06/05 08:01:36;;;;;;;7.15;4.03;;;;;;;22.83;62.48;101898.03;4946948;28;20055;-48
2023/06/05 08:04:04;;;;;;;6.07;3.85;;;;;;;23.36;60.05;101895.22;4945856;28;20055;-47
2023/06/05 08:06:37;;;;;;;5.45;3.17;;;;;;;23.77;57.75;101901.25;4938379;28;20130;-49
2023/06/05 08:09:06;;;;;;;7.03;4.30;;;;;;;24.08;55.76;101898.34;4951184;29;20047;-45
2023/06/05 08:11:33;;;;;;;5.65;3.22;;;;;;;24.44;54.31;101906.66;4946209;28;20099;-45
2023/06/05 08:13:59;;;;;;;7.88;3.97;;;;;;;24.83;53.00;101906.50;4948190;29;20110;-44
2023/06/05 08:16:26;;;;;;;6.43;3.28;;;;;;;25.20;51.53;101910.28;4951080;28;20110;-46
2023/06/05 08:18:53;;;;;;;7.88;4.13;;;;;;;25.42;50.25;101913.69;4951289;29;20501;-46
2023/06/05 08:21:20;;;;;;;6.88;4.00;;;;;;;25.66;49.00;101917.53;4950883;29;20050;-51
2023/06/05 08:23:47;;;;;;;4.35;3.78;;;;;;;25.73;48.46;101911.81;4943889;28;20059;-41
2023/06/05 08:26:14;;;;;;;6.85;4.35;;;;;;;25.75;47.58;101915.03;4947077;29;20053;-45
2023/06/05 08:28:41;;;;;;;5.45;3.95;;;;;;;25.66;46.42;101921.19;4948885;28;20621;-45
2023/06/05 08:31:09;;;;;;;10.88;3.35;;;;;;;25.62;46.34;101908.28;4948381;29;20106;-46
2023/06/05 08:33:38;;;;;;;7.13;3.42;;;;;;;25.86;45.98;101915.72;4946563;28;20134;-45
2023/06/05 08:36:06;;;;;;;8.13;4.25;;;;;;;25.96;45.30;101915.63;4950876;29;20114;-48
2023/06/05 08:38:34;;;;;;;7.32;4.28;;;;;;;26.03;44.83;101901.34;4950583;29;20054;-45
2023/06/05 08:41:05;;;;;;;7.07;3.95;;;;;;;26.26;44.40;101917.72;4948662;29;20051;-46
2023/06/05 08:43:32;;;;;;;5.90;3.28;;;;;;;26.23;43.87;101912.09;4942429;29;20055;-51
2023/06/05 08:46:00;;;;;;;7.25;4.22;;;;;;;26.30;43.49;101907.13;4941891;29;20142;-53
2023/06/05 08:48:31;;;;;;;6.22;4.07;;;;;;;26.36;43.27;101907.44;4946500;28;20045;-47
2023/06/05 08:51:00;;;;;;;5.55;3.60;;;;;;;26.49;42.80;101919.84;4928028;28;20043;-44
2023/06/05 08:53:34;;;;;;;9.75;4.50;;;;;;;26.56;42.34;101914.06;4947271;28;20083;-49
2023/06/05 08:56:02;;;;;;;6.25;3.22;;;;;;;26.67;42.06;101920.41;4946686;29;20083;-47
2023/06/05 08:58:29;;;;;;;8.68;3.40;;;;;;;26.75;42.21;101909.72;4945574;29;20154;-38
2023/06/05 09:00:57;;;;;;;10.48;4.00;;;;;;;26.94;41.82;101917.59;4947280;29;20059;-51
2023/06/05 09:03:23;;;;;;;5.68;3.30;;;;;;;26.93;40.97;101911.09;4932568;29;20505;-47
2023/06/05 09:05:52;;;;;;;4.65;2.75;;;;;;;26.87;40.88;101904.31;4946831;29;20102;-45
2023/06/05 09:08:30;;;;;;;4.63;2.88;;;;;;;26.90;40.38;101905.50;4933394;29;20493;-44
2023/06/05 09:11:25;;;;;;;4.93;2.65;;;;;;;27.12;40.39;101913.25;4931520;29;20051;-44
2023/06/05 09:13:54;;;;;;;5.40;3.00;;;;;;;27.13;39.82;101920.56;4931927;28;20071;-44
2023/06/05 09:16:37;;;;;;;7.65;3.40;;;;;;;27.25;39.42;101909.78;4947435;28;20146;-49
2023/06/05 09:19:05;;;;;;;7.68;4.18;;;;;;;27.58;38.85;101906.00;4944452;28;20051;-44
2023/06/05 09:21:33;;;;;;;5.60;3.15;;;;;;;27.61;38.66;101913.66;4947332;29;20043;-44
2023/06/05 09:24:14;;;;;;;5.72;2.85;;;;;;;27.43;38.59;101911.13;4948907;29;20058;-44
2023/06/05 09:26:52;;;;;;;6.60;3.73;;;;;;;27.37;38.43;101912.03;4935124;29;20054;-45
2023/06/05 09:29:22;;;;;;;5.75;3.00;;;;;;;27.48;37.88;101913.47;4943232;28;20433;-46
2023/06/05 09:31:51;;;;;;;7.05;2.92;;;;;;;27.70;37.50;101917.53;4945633;29;20558;-48
2023/06/05 09:34:22;;;;;;;4.07;2.63;;;;;;;27.55;37.11;101918.22;4946672;29;20137;-43
2023/06/05 09:36:49;;;;;;;4.22;2.65;;;;;;;27.56;36.85;101920.63;4946099;28;20123;-44
2023/06/05 09:39:19;;;;;;;5.57;4.03;;;;;;;27.69;36.71;101920.84;4948961;28;20505;-45
2023/06/05 09:41:49;;;;;;;5.95;2.70;;;;;;;27.59;36.15;101921.81;4926698;29;20050;-48
2023/06/05 09:44:16;;;;;;;4.53;2.83;;;;;;;27.38;36.38;101930.69;4911667;29;20110;-50
2023/06/05 09:47:08;;;;;;;3.33;2.75;;;;;;;27.30;36.27;101940.59;4913489;29;20417;-45
2023/06/05 09:49:40;;;;;;;4.43;2.53;;;;;;;27.24;36.15;101928.09;4943017;28;20046;-44
2023/06/05 09:52:09;;;;;;;5.22;2.25;;;;;;;27.36;35.80;101930.31;4948786;28;20051;-44
2023/06/05 09:54:38;;;;;;;6.97;2.58;;;;;;;27.53;35.11;101926.41;4945714;28;20091;-45
2023/06/05 09:57:10;;;;;;;4.65;2.20;;;;;;;27.53;35.09;101926.41;4943644;28;20050;-49
2023/06/05 10:00:06;;;;;;;6.88;2.30;;;;;;;27.44;35.85;101935.50;4952391;28;20051;-50
2023/06/05 10:02:35;;;;;;;5.85;2.70;;;;;;;27.44;35.89;101937.53;4942373;28;20047;-49
2023/06/05 10:05:08;;;;;;;9.13;3.40;;;;;;;27.31;34.91;101930.81;4952821;29;20051;-46
2023/06/05 10:07:38;;;;;;;6.05;2.50;;;;;;;27.12;35.49;101930.31;4952244;29;20047;-44
2023/06/05 10:10:09;;;;;;;5.03;2.23;;;;;;;27.11;35.01;101939.28;4915705;29;20431;-45
2023/06/05 10:12:36;;;;;;;5.68;2.55;;;;;;;26.86;35.25;101928.28;4946431;28;20047;-43
2023/06/05 10:15:06;;;;;;;7.78;2.38;;;;;;;26.73;35.61;101932.09;4949586;28;20081;-46
2023/06/05 10:17:38;;;;;;;6.15;2.90;;;;;;;26.61;35.59;101927.78;4947938;28;20675;-46
2023/06/05 10:20:06;;;;;;;4.78;2.90;;;;;;;26.33;36.07;101933.84;4945574;28;20089;-51
2023/06/05 10:22:37;;;;;;;6.60;2.85;;;;;;;26.20;36.24;101941.31;4941272;28;20553;-43
2023/06/05 10:25:06;;;;;;;;;;;;;;;25.91;37.07;101938.78;4949236;28;20051;-45
2023/06/05 10:27:52;;;;;;;4.88;2.63;;;;;;;25.65;37.56;101939.47;4945993;28;19973;-44
2023/06/05 10:30:40;;;;;;;5.60;2.80;;;;;;;25.41;38.00;101934.78;4939409;28;20096;-47
2023/06/05 10:33:28;;;;;;;5.85;3.28;;;;;;;25.04;38.62;101937.50;4943856;28;20460;-48
2023/06/05 10:36:28;;;;;;;5.28;2.97;;;;;;;24.78;38.99;101930.38;4944748;29;20054;-46
2023/06/05 10:38:57;;;;;;;8.10;2.78;;;;;;;24.59;39.77;101942.22;4944565;28;20468;-44
2023/06/05 10:41:25;;;;;;;3.13;2.75;;;;;;;24.39;40.28;101941.88;4949109;28;20043;-52
2023/06/05 10:43:53;;;;;;;5.43;2.88;;;;;;;24.29;40.98;101934.25;4943027;28;20109;-47
2023/06/05 10:46:36;;;;;;;7.35;3.38;;;;;;;24.00;41.37;101933.50;4949188;29;20452;-50
2023/06/05 10:49:19;;;;;;;3.78;3.17;;;;;;;23.63;41.64;101936.84;4948863;28;20043;-47
2023/06/05 10:51:48;;;;;;;7.22;3.17;;;;;;;23.37;41.80;101937.25;4945972;29;20051;-49
2023/06/05 10:54:21;;;;;;;5.72;3.20;;;;;;;23.17;42.41;101940.81;4948856;29;20059;-45
2023/06/05 10:57:01;;;;;;;6.93;2.85;;;;;;;23.06;42.78;101946.47;4945799;28;20790;-48
2023/06/05 10:59:32;;;;;;;6.18;2.50;;;;;;;23.07;42.90;101939.63;4938506;28;20570;-46
2023/06/05 11:02:11;;;;;;;3.88;2.42;;;;;;;22.90;42.81;101946.06;4932170;29;20062;-45
2023/06/05 11:04:41;;;;;;;5.63;2.97;;;;;;;22.66;43.25;101947.63;4950106;29;20040;-50
2023/06/05 11:07:22;;;;;;;8.32;2.45;;;;;;;22.54;43.32;101945.13;4939578;29;20466;-44
2023/06/05 11:10:01;;;;;;;5.50;3.40;;;;;;;22.41;43.71;101946.69;4938146;28;20067;-48
2023/06/05 11:12:40;;;;;;;9.75;3.45;;;;;;;22.30;44.45;101946.63;4935774;28;20505;-47
2023/06/05 11:15:12;;;;;;;7.05;3.13;;;;;;;22.20;44.69;101947.41;4929250;28;20047;-46
2023/06/05 11:17:43;;;;;;;6.63;3.10;;;;;;;22.03;44.86;101942.47;4933589;28;20114;-50
2023/06/05 11:20:23;;;;;;;5.20;2.38;;;;;;;21.95;44.76;101946.44;4935598;28;20053;-45
2023/06/05 11:22:53;;;;;;;4.57;2.67;;;;;;;21.72;45.12;101946.69;4946756;29;20138;-45
2023/06/05 11:25:29;;;;;;;7.53;2.92;;;;;;;21.50;45.81;101944.91;4947332;29;20043;-45
2023/06/05 11:28:07;;;;;;;5.15;2.80;;;;;;;21.46;46.09;101941.25;4948502;29;20097;-45
2023/06/05 11:30:43;;;;;;;3.03;2.50;;;;;;;21.38;46.20;101945.22;4948752;29;20059;-44
2023/06/05 11:33:17;;;;;;;7.35;3.45;;;;;;;21.32;46.70;101934.69;4947802;29;20054;-47
2023/06/05 11:35:48;;;;;;;6.55;2.40;;;;;;;21.16;45.99;101943.41;4944825;29;20074;-49